createdAt,value
2018-12-31T00:01:48.289Z,56.77
2018-12-31T00:04:25.984Z,55.33
2018-12-31T00:06:57.083Z,55.19
2018-12-31T00:09:27.751Z,55.46
2018-12-31T00:11:58.791Z,54.90
2018-12-31T00:14:55.272Z,54.94
2018-12-31T00:17:32.200Z,54.56
2018-12-31T00:20:04.386Z,55.04
2018-12-31T00:22:35.017Z,54.41
2018-12-31T00:25:05.917Z,54.38
2018-12-31T00:27:39.733Z,54.15
2018-12-31T00:30:11.555Z,53.74
2018-12-31T00:32:46.182Z,54.47
2018-12-31T00:35:20.542Z,54.75
2018-12-31T00:37:58.203Z,55.06
2018-12-31T00:40:31.579Z,55.67
2018-12-31T00:43:02.479Z,55.45
2018-12-31T00:45:35.295Z,55.48
2018-12-31T00:48:06.710Z,55.59
2018-12-31T00:50:37.962Z,55.53
2018-12-31T00:53:12.010Z,57.17
2018-12-31T00:55:49.627Z,56.24
2018-12-31T00:58:20.959Z,55.69
2018-12-31T01:00:54.695Z,55.37
2018-12-31T01:03:28.529Z,55.55
2018-12-31T01:06:01.025Z,55.08
2018-12-31T01:08:39.318Z,54.86
2018-12-31T01:11:15.112Z,55.15
2018-12-31T01:13:48.999Z,54.71
2018-12-31T01:16:24.342Z,54.47
2018-12-31T01:18:57.123Z,54.34
2018-12-31T01:21:30.877Z,54.60
2018-12-31T01:24:03.755Z,54.85
2018-12-31T01:26:45.060Z,54.45
2018-12-31T01:29:17.598Z,54.45
2018-12-31T01:31:49.953Z,54.76
2018-12-31T01:34:20.915Z,54.69
2018-12-31T01:36:51.956Z,55.27
2018-12-31T01:39:24.556Z,55.67
2018-12-31T01:41:56.943Z,56.44
2018-12-31T01:44:32.066Z,56.48
2018-12-31T01:47:04.509Z,55.87
2018-12-31T01:49:40.708Z,55.38
2018-12-31T01:52:13.127Z,55.02
2018-12-31T01:54:44.720Z,54.93
2018-12-31T01:57:15.804Z,55.48
2018-12-31T01:59:48.547Z,54.86
2018-12-31T02:02:21.806Z,54.83
2018-12-31T02:04:55.059Z,55.54
2018-12-31T02:07:27.269Z,55.45
2018-12-31T02:10:00.280Z,56.49
2018-12-31T02:12:32.988Z,55.60
2018-12-31T02:15:04.774Z,55.97
2018-12-31T02:17:38.425Z,55.74
2018-12-31T02:20:10.437Z,55.96
2018-12-31T02:22:42.686Z,55.76
2018-12-31T02:25:15.673Z,55.66
2018-12-31T02:27:48.186Z,55.65
2018-12-31T02:30:21.802Z,55.37
2018-12-31T02:32:54.021Z,55.47
2018-12-31T02:35:31.882Z,54.93
2018-12-31T02:38:02.347Z,55.09
2018-12-31T02:40:36.870Z,54.60
2018-12-31T02:43:08.925Z,54.55
2018-12-31T02:45:40.964Z,54.96
2018-12-31T02:48:30.032Z,54.19
2018-12-31T02:51:21.834Z,54.24
2018-12-31T02:53:59.207Z,54.13
2018-12-31T02:56:32.222Z,54.41
2018-12-31T02:59:04.062Z,54.32
2018-12-31T03:01:36.042Z,54.22
2018-12-31T03:04:08.386Z,54.03
2018-12-31T03:06:41.515Z,54.25
2018-12-31T03:09:12.656Z,54.17
2018-12-31T03:11:42.948Z,53.88
2018-12-31T03:14:14.433Z,54.50
2018-12-31T03:16:48.378Z,55.00
2018-12-31T03:19:25.324Z,54.52
2018-12-31T03:21:57.336Z,54.96
2018-12-31T03:24:30.813Z,54.64
2018-12-31T03:27:02.411Z,54.77
2018-12-31T03:29:36.248Z,54.98
2018-12-31T03:32:26.082Z,55.48
2018-12-31T03:34:59.261Z,54.58
2018-12-31T03:37:32.237Z,54.16
2018-12-31T03:40:06.459Z,53.88
2018-12-31T03:42:40.588Z,53.69
2018-12-31T03:45:21.262Z,53.52
2018-12-31T03:47:55.052Z,53.42
2018-12-31T03:50:33.320Z,53.29
2018-12-31T03:53:31.016Z,53.38
2018-12-31T03:56:19.952Z,53.38
2018-12-31T03:59:15.980Z,53.18
2018-12-31T04:01:49.700Z,53.10
2018-12-31T04:04:22.892Z,53.22
2018-12-31T04:06:58.521Z,53.11
2018-12-31T04:09:32.275Z,53.12
2018-12-31T04:12:05.650Z,53.35
2018-12-31T04:14:37.743Z,53.21
2018-12-31T04:17:09.095Z,53.15
2018-12-31T04:19:43.416Z,53.40
2018-12-31T04:22:16.612Z,53.83
2018-12-31T04:24:47.342Z,53.69
2018-12-31T04:27:17.673Z,53.65
2018-12-31T04:29:48.951Z,53.85
2018-12-31T04:32:20.117Z,54.39
2018-12-31T04:34:50.450Z,54.78
2018-12-31T04:37:22.691Z,54.37
2018-12-31T04:39:54.969Z,55.09
2018-12-31T04:42:30.890Z,55.65
2018-12-31T04:45:02.220Z,54.90
2018-12-31T04:47:33.954Z,54.51
2018-12-31T04:50:09.392Z,54.59
2018-12-31T04:52:45.817Z,54.29
2018-12-31T04:55:17.199Z,54.13
2018-12-31T04:57:49.538Z,54.01
2018-12-31T05:00:21.128Z,53.77
2018-12-31T05:02:52.201Z,53.91
2018-12-31T05:05:23.400Z,54.62
2018-12-31T05:07:55.583Z,54.31
2018-12-31T05:10:30.530Z,54.05
2018-12-31T05:13:04.363Z,54.37
2018-12-31T05:15:35.822Z,54.35
2018-12-31T05:18:08.395Z,54.88
2018-12-31T05:20:41.182Z,55.14
2018-12-31T05:23:16.282Z,54.51
2018-12-31T05:25:48.713Z,55.19
2018-12-31T05:28:20.312Z,54.86
2018-12-31T05:30:50.930Z,55.00
2018-12-31T05:33:23.674Z,54.82
2018-12-31T05:35:54.755Z,54.80
2018-12-31T05:38:27.436Z,55.18
2018-12-31T05:40:58.674Z,55.25
2018-12-31T05:43:32.564Z,54.57
2018-12-31T05:46:11.765Z,54.73
2018-12-31T05:48:46.581Z,54.54
2018-12-31T05:51:37.951Z,54.39
2018-12-31T05:54:11.967Z,54.10
2018-12-31T05:56:47.110Z,54.62
2018-12-31T05:59:20.117Z,55.19
2018-12-31T06:01:53.926Z,55.58
2018-12-31T06:04:25.891Z,56.13
2018-12-31T06:06:59.186Z,55.10
2018-12-31T06:09:32.896Z,54.93
2018-12-31T06:12:10.356Z,54.93
2018-12-31T06:14:45.191Z,54.83
2018-12-31T06:17:21.239Z,54.61
2018-12-31T06:20:02.871Z,54.42
2018-12-31T06:22:37.614Z,54.23
2018-12-31T06:25:11.484Z,54.67
2018-12-31T06:27:43.704Z,54.83
2018-12-31T06:30:17.013Z,54.34
2018-12-31T06:32:54.163Z,54.72
2018-12-31T06:35:26.638Z,55.28
2018-12-31T06:37:57.610Z,54.41
2018-12-31T06:40:30.563Z,54.16
2018-12-31T06:43:01.623Z,53.99
2018-12-31T06:45:35.803Z,53.93
2018-12-31T06:48:07.504Z,53.88
2018-12-31T06:50:43.629Z,53.92
2018-12-31T06:53:15.827Z,53.79
2018-12-31T06:55:49.967Z,53.64
2018-12-31T06:58:25.546Z,53.60
2018-12-31T07:01:00.003Z,53.51
2018-12-31T07:03:32.616Z,53.40
2018-12-31T07:06:05.999Z,53.42
2018-12-31T07:08:36.928Z,53.50
2018-12-31T07:11:10.241Z,53.61
2018-12-31T07:13:47.506Z,53.55
2018-12-31T07:16:27.189Z,53.69
2018-12-31T07:19:00.425Z,53.93
2018-12-31T07:21:33.116Z,54.67
2018-12-31T07:24:06.718Z,54.41
2018-12-31T07:26:43.058Z,54.19
2018-12-31T07:29:17.502Z,54.17
2018-12-31T07:31:48.701Z,53.89
2018-12-31T07:34:22.451Z,53.62
2018-12-31T07:36:56.566Z,54.35
2018-12-31T07:39:27.447Z,54.25
2018-12-31T07:41:58.347Z,53.87
2018-12-31T07:44:29.417Z,54.67
2018-12-31T07:47:03.710Z,54.44
2018-12-31T07:49:36.022Z,54.33
2018-12-31T07:52:07.782Z,54.95
2018-12-31T07:54:39.656Z,54.58
2018-12-31T07:57:14.067Z,54.84
2018-12-31T07:59:47.029Z,55.29
2018-12-31T08:02:22.792Z,55.85
2018-12-31T08:04:57.952Z,55.18
2018-12-31T08:07:32.909Z,54.85
2018-12-31T08:10:08.987Z,54.73
2018-12-31T08:12:43.335Z,55.01
2018-12-31T08:15:17.116Z,54.77
2018-12-31T08:17:56.804Z,55.65
2018-12-31T08:20:27.984Z,59.04
2018-12-31T08:22:59.518Z,57.13
2018-12-31T08:25:31.305Z,56.79
2018-12-31T08:28:03.110Z,55.77
2018-12-31T08:30:37.634Z,55.31
2018-12-31T08:33:10.555Z,55.13
2018-12-31T08:35:48.708Z,55.12
2018-12-31T08:38:20.640Z,54.81
2018-12-31T08:40:53.704Z,54.68
2018-12-31T08:43:25.751Z,54.72
2018-12-31T08:45:57.157Z,54.27
2018-12-31T08:48:33.189Z,54.05
2018-12-31T08:51:04.236Z,55.33
2018-12-31T08:53:35.248Z,54.62
2018-12-31T08:56:07.233Z,54.52
2018-12-31T08:58:40.842Z,54.79
2018-12-31T09:01:20.073Z,54.44
2018-12-31T09:03:51.398Z,55.14
2018-12-31T09:06:23.672Z,55.01
2018-12-31T09:08:55.633Z,55.20
2018-12-31T09:11:26.912Z,54.93
2018-12-31T09:13:59.509Z,55.12
2018-12-31T09:16:33.935Z,55.11
2018-12-31T09:19:06.468Z,54.95
2018-12-31T09:21:39.046Z,54.75
2018-12-31T09:24:17.714Z,54.27
2018-12-31T09:26:58.928Z,53.89
2018-12-31T09:29:33.933Z,54.47
2018-12-31T09:32:06.464Z,54.15
2018-12-31T09:34:38.107Z,54.51
2018-12-31T09:37:09.678Z,54.37
2018-12-31T09:39:42.329Z,54.05
2018-12-31T09:42:16.448Z,54.23
2018-12-31T09:44:53.532Z,55.19
2018-12-31T09:47:26.082Z,54.85
2018-12-31T09:50:00.014Z,55.18
2018-12-31T09:52:34.087Z,55.76
2018-12-31T09:55:06.724Z,55.16
2018-12-31T09:57:39.523Z,54.67
2018-12-31T10:00:13.966Z,54.75
2018-12-31T10:02:45.738Z,55.08
2018-12-31T10:05:18.765Z,55.07
2018-12-31T10:07:49.665Z,54.60
2018-12-31T10:10:23.069Z,54.26
2018-12-31T10:12:56.271Z,54.91
2018-12-31T10:15:31.277Z,55.12
2018-12-31T10:18:08.141Z,55.10
2018-12-31T10:20:43.741Z,54.88
2018-12-31T10:26:41.911Z,54.56
2018-12-31T10:29:17.058Z,54.88
2018-12-31T10:31:50.074Z,55.03
2018-12-31T10:34:23.287Z,55.36
2018-12-31T10:36:55.962Z,55.62
2018-12-31T10:39:28.493Z,55.54
2018-12-31T10:42:00.019Z,55.01
2018-12-31T10:44:31.846Z,55.55
2018-12-31T10:47:05.931Z,55.31
2018-12-31T10:49:40.087Z,54.77
2018-12-31T10:52:14.708Z,54.40
2018-12-31T10:54:50.395Z,54.28
2018-12-31T10:57:26.182Z,54.14
2018-12-31T10:59:58.267Z,54.57
2018-12-31T11:02:30.099Z,54.42
2018-12-31T11:05:01.785Z,54.12
2018-12-31T11:07:36.047Z,53.80
2018-12-31T11:10:06.883Z,54.88
2018-12-31T11:12:37.859Z,55.19
2018-12-31T11:15:11.155Z,55.00
2018-12-31T11:17:45.681Z,55.61
2018-12-31T11:20:19.468Z,54.83
2018-12-31T11:22:51.416Z,55.27
2018-12-31T11:25:23.791Z,55.02
2018-12-31T11:28:04.663Z,54.57
2018-12-31T11:30:38.509Z,56.29
2018-12-31T11:33:14.565Z,55.61
2018-12-31T11:35:50.610Z,55.15
2018-12-31T11:38:25.746Z,55.16
2018-12-31T11:40:59.947Z,55.42
2018-12-31T11:43:39.201Z,55.72
2018-12-31T11:46:13.344Z,55.06
2018-12-31T11:48:48.375Z,54.64
2018-12-31T11:51:19.111Z,54.50
2018-12-31T11:53:51.049Z,54.74
2018-12-31T11:56:22.207Z,54.77
2018-12-31T11:58:59.512Z,54.05
2018-12-31T12:01:38.664Z,54.46
2018-12-31T12:04:17.631Z,54.21
2018-12-31T12:06:56.294Z,54.04
2018-12-31T12:09:27.965Z,54.17
2018-12-31T12:12:07.028Z,54.26
2018-12-31T12:14:41.947Z,53.99
2018-12-31T12:17:14.000Z,53.89
2018-12-31T12:19:56.717Z,54.03
2018-12-31T12:22:34.253Z,54.32
2018-12-31T12:25:13.387Z,54.14
2018-12-31T12:27:47.643Z,53.97
2018-12-31T12:30:19.380Z,53.89
2018-12-31T12:32:52.355Z,53.62
2018-12-31T12:35:29.246Z,53.66
2018-12-31T12:38:00.672Z,53.73
2018-12-31T12:40:32.115Z,53.79
2018-12-31T12:43:04.735Z,53.63
2018-12-31T12:45:38.644Z,53.59
2018-12-31T12:48:23.286Z,53.19
2018-12-31T12:50:58.247Z,53.48
2018-12-31T12:53:30.474Z,54.09
2018-12-31T12:56:02.473Z,53.93
2018-12-31T12:58:40.197Z,53.72
2018-12-31T13:01:13.434Z,53.19
2018-12-31T13:03:45.555Z,53.62
2018-12-31T13:06:19.139Z,54.14
2018-12-31T13:08:50.981Z,53.50
2018-12-31T13:11:22.642Z,53.44
2018-12-31T13:13:54.604Z,53.42
2018-12-31T13:16:27.143Z,53.51
2018-12-31T13:19:00.187Z,53.32
2018-12-31T13:21:32.355Z,54.09
2018-12-31T13:24:07.568Z,53.76
2018-12-31T13:26:49.457Z,53.49
2018-12-31T13:29:34.675Z,54.12
2018-12-31T13:32:08.892Z,53.75
2018-12-31T13:34:41.028Z,53.25
2018-12-31T13:37:14.547Z,53.19
2018-12-31T13:39:45.159Z,52.76
2018-12-31T13:42:20.427Z,52.44
2018-12-31T13:44:51.998Z,52.91
2018-12-31T13:47:25.009Z,52.47
2018-12-31T13:49:57.537Z,52.72
2018-12-31T13:52:31.857Z,52.42
2018-12-31T13:55:06.533Z,52.15
2018-12-31T13:57:41.800Z,52.07
2018-12-31T14:00:26.105Z,51.91
2018-12-31T14:02:57.732Z,52.28
2018-12-31T14:05:34.256Z,51.65
2018-12-31T14:08:07.438Z,51.64
2018-12-31T14:10:39.491Z,52.03
2018-12-31T14:13:11.144Z,51.71
2018-12-31T14:15:43.065Z,51.54
2018-12-31T14:18:13.842Z,51.33
2018-12-31T14:20:46.736Z,51.43
2018-12-31T14:23:19.013Z,51.49
2018-12-31T14:25:50.926Z,51.46
2018-12-31T14:28:23.329Z,51.27
2018-12-31T14:30:55.141Z,51.31
2018-12-31T14:33:25.820Z,51.61
2018-12-31T14:35:57.680Z,51.54
2018-12-31T14:38:31.902Z,51.32
2018-12-31T14:41:04.995Z,51.24
2018-12-31T14:43:38.126Z,51.26
2018-12-31T14:46:11.856Z,51.19
2018-12-31T14:48:45.780Z,51.53
2018-12-31T14:51:18.972Z,51.41
2018-12-31T14:53:56.598Z,51.56
2018-12-31T14:56:28.518Z,51.39
2018-12-31T14:58:59.211Z,51.35
2018-12-31T15:01:38.969Z,51.18
2018-12-31T15:04:11.798Z,51.10
2018-12-31T15:06:44.994Z,51.24
2018-12-31T15:09:20.589Z,51.09
2018-12-31T15:11:53.936Z,51.04
2018-12-31T15:14:27.759Z,51.24
2018-12-31T15:17:01.498Z,51.19
2018-12-31T15:19:32.977Z,51.25
2018-12-31T15:22:05.104Z,51.29
2018-12-31T15:24:39.042Z,51.01
2018-12-31T15:27:15.197Z,51.03
2018-12-31T15:29:48.764Z,51.01
2018-12-31T15:32:20.650Z,50.85
2018-12-31T15:34:53.101Z,51.17
2018-12-31T15:37:33.632Z,51.32
2018-12-31T15:40:06.695Z,52.84
2018-12-31T15:42:38.445Z,52.17
2018-12-31T15:45:10.587Z,53.19
2018-12-31T15:47:41.854Z,52.84
2018-12-31T15:50:13.307Z,52.65
2018-12-31T15:52:44.901Z,52.36
2018-12-31T15:55:17.299Z,52.22
2018-12-31T15:57:52.170Z,51.93
2018-12-31T16:00:41.601Z,51.92
2018-12-31T16:03:20.228Z,51.85
2018-12-31T16:05:57.328Z,51.75
2018-12-31T16:08:34.572Z,51.55
2018-12-31T16:11:06.717Z,51.45
2018-12-31T16:13:39.484Z,51.73
2018-12-31T16:16:11.440Z,51.83
2018-12-31T16:18:47.163Z,52.20
2018-12-31T16:21:23.628Z,51.77
2018-12-31T16:24:10.193Z,51.62
2018-12-31T16:26:44.955Z,51.49
2018-12-31T16:29:19.911Z,51.39
